createdAt,value
2019-06-10T00:00:37.664Z,2.70
2019-06-10T00:03:07.498Z,3.13
2019-06-10T00:05:37.335Z,2.50
2019-06-10T00:08:07.358Z,2.73
2019-06-10T00:10:37.202Z,2.57
2019-06-10T00:13:08.551Z,2.70
2019-06-10T00:15:40.760Z,3.00
2019-06-10T00:18:32.848Z,3.03
2019-06-10T00:20:41.579Z,2.80
2019-06-10T00:23:12.505Z,2.90
2019-06-10T00:25:42.695Z,2.60
2019-06-10T00:28:12.674Z,3.23
2019-06-10T00:30:42.522Z,3.10
2019-06-10T00:33:12.842Z,2.80
2019-06-10T00:35:42.931Z,2.53
2019-06-10T00:38:14.374Z,2.90
2019-06-10T00:40:44.438Z,3.10
2019-06-10T00:43:14.304Z,3.57
2019-06-10T00:45:44.151Z,3.27
2019-06-10T00:48:25.210Z,3.10
2019-06-10T00:50:46.198Z,3.37
2019-06-10T00:53:16.063Z,3.10
2019-06-10T00:55:46.009Z,2.80
2019-06-10T00:58:15.890Z,2.70
2019-06-10T01:00:45.757Z,3.17
2019-06-10T01:03:15.605Z,3.10
2019-06-10T01:05:45.539Z,3.43
2019-06-10T01:08:15.839Z,3.17
2019-06-10T01:10:45.812Z,2.77
2019-06-10T01:13:15.666Z,3.40
2019-06-10T01:15:45.603Z,3.10
2019-06-10T01:18:31.977Z,2.87
2019-06-10T01:20:47.005Z,3.37
2019-06-10T01:23:17.606Z,3.33
2019-06-10T01:25:47.494Z,3.30
2019-06-10T01:28:18.595Z,3.57
2019-06-10T01:31:10.068Z,2.93
2019-06-10T01:33:41.068Z,3.13
2019-06-10T01:36:13.401Z,3.23
2019-06-10T01:38:42.158Z,3.00
2019-06-10T01:41:13.791Z,3.17
2019-06-10T01:43:43.490Z,3.00
2019-06-10T01:46:14.713Z,4.00
2019-06-10T01:48:48.127Z,4.00
2019-06-10T01:51:21.311Z,2.90
2019-06-10T01:53:51.555Z,3.30
2019-06-10T01:56:21.732Z,3.40
2019-06-10T01:58:51.737Z,3.07
2019-06-10T02:01:41.187Z,3.60
2019-06-10T02:04:13.071Z,4.40
2019-06-10T02:06:41.998Z,4.70
2019-06-10T02:09:13.871Z,4.13
2019-06-10T02:11:43.382Z,4.60
2019-06-10T02:14:16.636Z,4.53
2019-06-10T02:16:44.742Z,4.00
2019-06-10T02:19:16.921Z,4.10
2019-06-10T02:21:46.105Z,4.23
2019-06-10T02:24:16.428Z,4.43
2019-06-10T02:26:47.518Z,4.47
2019-06-10T02:29:17.530Z,4.57
2019-06-10T02:31:47.544Z,4.97
2019-06-10T02:34:22.184Z,4.30
2019-06-10T02:36:48.872Z,4.37
2019-06-10T02:39:25.845Z,5.70
2019-06-10T02:41:53.572Z,5.83
2019-06-10T02:44:31.890Z,5.83
2019-06-10T02:46:54.867Z,6.30
2019-06-10T02:49:46.948Z,5.70
2019-06-10T02:51:56.346Z,6.07
2019-06-10T02:54:31.457Z,5.37
2019-06-10T02:56:57.753Z,4.80
2019-06-10T02:59:31.795Z,5.27
2019-06-10T03:01:59.062Z,5.20
2019-06-10T03:04:32.839Z,5.77
2019-06-10T03:07:03.189Z,6.00
2019-06-10T03:09:35.454Z,6.27
2019-06-10T03:12:04.566Z,6.50
2019-06-10T03:14:34.885Z,6.20
2019-06-10T03:17:08.034Z,5.90
2019-06-10T03:19:47.131Z,5.83
2019-06-10T03:22:09.456Z,7.13
2019-06-10T03:24:39.308Z,7.27
2019-06-10T03:27:09.165Z,7.70
2019-06-10T03:29:39.097Z,7.57
2019-06-10T03:32:09.335Z,7.77
2019-06-10T03:34:46.037Z,7.70
2019-06-10T03:37:12.820Z,7.13
2019-06-10T03:39:42.665Z,7.77
2019-06-10T03:42:12.742Z,7.63
2019-06-10T03:44:43.059Z,7.57
2019-06-10T03:47:12.951Z,7.80
2019-06-10T03:49:51.957Z,8.73
2019-06-10T03:52:14.371Z,9.17
2019-06-10T03:54:44.218Z,9.60
2019-06-10T03:57:14.052Z,9.60
2019-06-10T03:59:43.968Z,9.13
2019-06-10T04:02:13.815Z,9.43
2019-06-10T04:04:43.720Z,10.10
2019-06-10T04:07:14.345Z,10.60
2019-06-10T04:09:44.347Z,11.23
2019-06-10T04:12:14.202Z,11.27
2019-06-10T04:14:44.052Z,11.00
2019-06-10T04:17:13.894Z,10.63
2019-06-10T04:19:43.799Z,11.47
2019-06-10T04:22:13.656Z,11.63
2019-06-10T04:24:43.549Z,11.43
2019-06-10T04:27:13.484Z,12.33
2019-06-10T04:29:43.374Z,11.67
2019-06-10T04:32:13.212Z,12.90
2019-06-10T04:34:43.435Z,12.77
2019-06-10T04:37:13.394Z,11.77
2019-06-10T04:39:43.445Z,12.37
2019-06-10T04:42:13.314Z,10.93
2019-06-10T04:44:43.150Z,12.73
2019-06-10T04:47:13.090Z,11.97
2019-06-10T04:49:42.987Z,11.43
2019-06-10T04:52:12.837Z,12.83
2019-06-10T04:54:42.657Z,12.27
2019-06-10T04:57:12.796Z,11.87
2019-06-10T04:59:43.021Z,11.13
2019-06-10T05:02:12.949Z,11.23
2019-06-10T05:04:42.759Z,12.00
2019-06-10T05:07:12.661Z,14.65
2019-06-10T05:09:42.606Z,15.63
2019-06-10T05:12:12.506Z,17.10
2019-06-10T05:14:43.275Z,13.23
2019-06-10T05:17:13.267Z,13.17
2019-06-10T05:19:43.187Z,13.13
2019-06-10T05:22:13.190Z,14.00
2019-06-10T05:24:43.067Z,13.57
2019-06-10T05:27:12.954Z,13.63
2019-06-10T05:29:42.854Z,13.97
2019-06-10T05:32:12.871Z,14.07
2019-06-10T05:34:43.726Z,14.43
2019-06-10T05:37:13.740Z,13.40
2019-06-10T05:39:43.632Z,13.53
2019-06-10T05:42:13.598Z,12.27
2019-06-10T05:44:43.540Z,13.33
2019-06-10T05:47:13.393Z,12.93
2019-06-10T05:49:43.293Z,12.73
2019-06-10T05:52:13.183Z,12.50
2019-06-10T05:54:43.196Z,12.53
2019-06-10T05:57:13.182Z,11.40
2019-06-10T05:59:43.348Z,10.00
2019-06-10T06:02:13.318Z,9.60
2019-06-10T06:04:43.187Z,10.10
2019-06-10T06:07:13.215Z,9.27
2019-06-10T06:09:43.120Z,9.03
2019-06-10T06:12:14.251Z,10.03
2019-06-10T06:14:44.443Z,10.23
2019-06-10T06:17:16.573Z,10.77
2019-06-10T06:19:46.003Z,11.03
2019-06-10T06:22:16.017Z,11.40
2019-06-10T06:24:45.950Z,11.60
2019-06-10T06:27:16.430Z,12.13
2019-06-10T06:29:47.066Z,11.60
2019-06-10T06:32:17.708Z,12.00
2019-06-10T06:34:48.402Z,12.27
2019-06-10T06:37:19.034Z,13.50
2019-06-10T06:39:52.185Z,12.87
2019-06-10T06:42:22.864Z,12.97
2019-06-10T06:44:53.917Z,13.00
2019-06-10T06:47:24.478Z,11.20
2019-06-10T06:49:55.653Z,12.23
2019-06-10T06:52:46.583Z,11.37
2019-06-10T06:54:57.094Z,13.43
2019-06-10T06:57:28.918Z,9.60
2019-06-10T06:59:58.904Z,11.77
2019-06-10T07:02:29.566Z,8.17
2019-06-10T07:04:59.824Z,8.43
2019-06-10T07:07:33.118Z,8.60
2019-06-10T07:10:03.524Z,7.53
2019-06-10T07:12:36.345Z,6.90
2019-06-10T07:15:07.198Z,7.60
2019-06-10T07:17:37.942Z,10.57
2019-06-10T07:20:09.246Z,20.13
2019-06-10T07:22:41.388Z,12.03
2019-06-10T07:25:12.368Z,13.07
2019-06-10T07:27:45.109Z,10.73
2019-06-10T07:30:15.062Z,11.37
2019-06-10T07:32:47.272Z,11.03
2019-06-10T07:35:16.963Z,11.07
2019-06-10T07:37:46.898Z,11.67
2019-06-10T07:40:16.890Z,10.67
2019-06-10T07:42:46.727Z,10.90
2019-06-10T07:45:16.928Z,9.40
2019-06-10T07:47:46.907Z,7.93
2019-06-10T07:50:17.130Z,8.67
2019-06-10T07:52:47.091Z,8.70
2019-06-10T07:55:17.454Z,9.23
2019-06-10T07:57:47.353Z,8.73
2019-06-10T08:00:17.611Z,8.77
2019-06-10T08:02:47.455Z,7.13
2019-06-10T08:05:17.295Z,6.50
2019-06-10T08:07:48.968Z,6.10
2019-06-10T08:10:18.840Z,3.20
2019-06-10T08:12:48.671Z,3.10
2019-06-10T08:15:18.817Z,3.23
2019-06-10T08:17:48.829Z,3.70
2019-06-10T08:20:39.164Z,3.80
2019-06-10T08:23:09.244Z,3.50
2019-06-10T08:25:40.403Z,3.30
2019-06-10T08:28:13.242Z,3.60
2019-06-10T08:30:44.537Z,2.83
2019-06-10T08:33:14.103Z,3.43
2019-06-10T08:35:54.930Z,4.13
2019-06-10T08:38:16.590Z,3.90
2019-06-10T08:40:48.466Z,3.97
2019-06-10T08:43:18.281Z,4.17
2019-06-10T08:45:48.784Z,4.27
2019-06-10T08:48:18.875Z,3.70
2019-06-10T08:50:50.252Z,3.47
2019-06-10T08:53:22.521Z,4.40
2019-06-10T08:55:53.595Z,4.40
2019-06-10T08:58:23.992Z,4.90
2019-06-10T09:00:54.899Z,5.70
2019-06-10T09:03:24.889Z,5.83
2019-06-10T09:05:58.364Z,7.23
2019-06-10T09:08:28.278Z,6.20
2019-06-10T09:10:58.187Z,5.50
2019-06-10T09:13:28.146Z,5.80
2019-06-10T09:16:10.956Z,5.87
2019-06-10T09:18:29.783Z,5.20
2019-06-10T09:21:02.160Z,3.67
2019-06-10T09:23:33.174Z,3.40
2019-06-10T09:26:03.710Z,3.10
2019-06-10T09:28:33.948Z,3.20
2019-06-10T09:31:05.465Z,3.00
2019-06-10T09:33:35.730Z,3.13
2019-06-10T09:36:05.924Z,3.30
2019-06-10T09:38:35.922Z,3.17
2019-06-10T09:41:06.559Z,2.87
2019-06-10T09:43:36.682Z,2.63
2019-06-10T09:46:06.947Z,2.40
2019-06-10T09:48:37.088Z,2.70
2019-06-10T09:51:08.198Z,2.50
2019-06-10T09:53:42.778Z,2.57
2019-06-10T09:56:09.667Z,2.57
2019-06-10T09:58:40.790Z,2.50
2019-06-10T10:01:13.266Z,2.33
2019-06-10T10:03:47.934Z,2.23
2019-06-10T10:06:16.099Z,2.60
2019-06-10T10:08:52.427Z,2.10
2019-06-10T10:11:18.367Z,2.30
2019-06-10T10:13:49.905Z,2.30
2019-06-10T10:16:22.307Z,2.40
2019-06-10T10:18:57.579Z,2.30
2019-06-10T10:21:23.470Z,4.57
2019-06-10T10:24:06.289Z,4.60
2019-06-10T10:26:25.114Z,5.33
2019-06-10T10:28:57.019Z,6.07
2019-06-10T10:31:26.968Z,5.93
2019-06-10T10:33:57.027Z,6.87
2019-06-10T10:36:27.075Z,7.10
2019-06-10T10:38:57.639Z,6.97
2019-06-10T10:41:27.575Z,5.20
2019-06-10T10:43:58.482Z,4.40
2019-06-10T10:46:28.665Z,4.63
2019-06-10T10:48:58.700Z,3.80
2019-06-10T10:51:28.790Z,4.97
2019-06-10T10:54:25.556Z,4.87
2019-06-10T10:56:30.408Z,4.60
2019-06-10T10:59:02.135Z,3.70
2019-06-10T11:01:33.310Z,3.03
2019-06-10T11:04:03.937Z,2.77
2019-06-10T11:06:34.141Z,5.10
2019-06-10T11:09:05.591Z,5.00
2019-06-10T11:11:35.644Z,6.00
2019-06-10T11:14:06.010Z,6.37
2019-06-10T11:16:36.195Z,4.10
2019-06-10T11:19:06.274Z,4.67
2019-06-10T11:21:36.307Z,5.10
2019-06-10T11:24:06.331Z,4.50
2019-06-10T11:26:36.535Z,3.90
2019-06-10T11:29:06.736Z,3.63
2019-06-10T11:31:36.599Z,3.90
2019-06-10T11:34:06.685Z,4.60
2019-06-10T11:36:36.907Z,4.37
2019-06-10T12:42:56.740Z,2.90
2019-06-10T12:45:26.190Z,2.60
2019-06-10T12:47:58.167Z,2.17
2019-06-10T12:50:27.976Z,2.70
2019-06-10T12:53:00.159Z,2.60
2019-06-10T12:55:40.188Z,3.00
2019-06-10T12:58:04.214Z,3.63
2019-06-10T13:00:43.887Z,3.70
2019-06-10T13:03:14.621Z,3.43
2019-06-10T13:05:45.275Z,3.27
2019-06-10T13:08:20.609Z,3.17
2019-06-10T13:10:53.040Z,3.20
2019-06-10T13:13:22.691Z,2.90
2019-06-10T13:15:53.465Z,2.90
2019-06-10T13:18:24.038Z,3.43
2019-06-10T13:20:54.474Z,2.77
2019-06-10T13:23:31.583Z,2.53
2019-06-10T13:26:00.355Z,1.90
2019-06-10T13:28:27.982Z,2.00
2019-06-10T13:30:59.070Z,1.67
2019-06-10T13:33:29.295Z,2.13
2019-06-10T13:35:59.833Z,2.10
2019-06-10T13:38:33.101Z,2.20
2019-06-10T13:41:04.170Z,2.20
2019-06-10T13:43:34.559Z,2.00
2019-06-10T13:46:07.388Z,2.20
2019-06-10T13:48:36.492Z,2.20
2019-06-10T13:51:10.186Z,2.47
2019-06-10T13:53:38.344Z,2.30
2019-06-10T13:56:32.018Z,2.87
2019-06-10T13:58:45.081Z,2.33
2019-06-10T14:01:20.781Z,2.73
2019-06-10T14:03:44.130Z,2.77
2019-06-10T14:06:33.103Z,2.87
2019-06-10T14:08:46.176Z,2.40
2019-06-10T14:11:16.258Z,2.30
2019-06-10T14:13:46.232Z,2.73
2019-06-10T14:16:16.360Z,2.60
2019-06-10T14:18:46.313Z,2.60
2019-06-10T14:21:18.449Z,2.50
2019-06-10T14:23:47.920Z,2.73
2019-06-10T14:26:31.235Z,2.30
2019-06-10T14:28:52.574Z,3.00
2019-06-10T14:31:39.174Z,2.40
2019-06-10T14:33:54.455Z,2.90
2019-06-10T14:36:24.380Z,2.97
2019-06-10T14:38:54.440Z,2.43
2019-06-10T14:41:25.974Z,2.43
2019-06-10T14:43:56.169Z,2.50
2019-06-10T14:46:26.140Z,2.20
2019-06-10T14:48:56.153Z,3.83
2019-06-10T14:51:26.324Z,3.50
2019-06-10T14:53:56.269Z,4.00
2019-06-10T14:56:26.229Z,3.23
2019-06-10T14:58:56.200Z,3.93
2019-06-10T15:01:26.726Z,3.30
2019-06-10T15:03:56.801Z,3.57
2019-06-10T15:06:26.750Z,4.40
2019-06-10T15:08:56.727Z,4.67
2019-06-10T15:11:27.801Z,4.23
2019-06-10T15:13:57.854Z,3.83
2019-06-10T15:16:27.828Z,3.20
2019-06-10T15:19:10.972Z,3.70
2019-06-10T15:21:42.874Z,3.60
2019-06-10T15:24:14.008Z,3.80
2019-06-10T15:26:44.196Z,3.80
2019-06-10T15:29:17.042Z,3.80
2019-06-10T15:31:45.949Z,3.50
2019-06-10T15:34:18.009Z,3.57
2019-06-10T15:36:47.725Z,3.33
2019-06-10T15:39:19.619Z,3.10
2019-06-10T15:41:49.319Z,3.30
2019-06-10T15:44:41.950Z,3.33
2019-06-10T15:46:52.450Z,3.50
2019-06-10T15:49:25.956Z,3.67
2019-06-10T15:51:54.542Z,3.40
2019-06-10T15:54:25.373Z,2.90
2019-06-10T15:56:56.538Z,3.23
2019-06-10T15:59:26.964Z,3.80
2019-06-10T16:01:56.927Z,3.30
2019-06-10T16:04:29.754Z,4.20
2019-06-10T16:06:58.533Z,4.20
2019-06-10T16:09:28.493Z,3.80
2019-06-10T16:11:58.454Z,3.73
2019-06-10T16:14:28.423Z,3.80
2019-06-10T16:16:58.425Z,3.60
2019-06-10T16:19:28.478Z,5.23
2019-06-10T16:21:58.426Z,4.70
2019-06-10T16:24:28.394Z,4.90
2019-06-10T16:26:58.341Z,4.00
2019-06-10T16:29:28.302Z,3.90
2019-06-10T16:31:58.308Z,3.57
2019-06-10T16:34:29.099Z,4.57
2019-06-10T16:36:59.272Z,4.30
2019-06-10T16:39:29.341Z,4.13
2019-06-10T16:41:59.391Z,4.40
2019-06-10T16:44:29.571Z,4.93
2019-06-10T16:46:59.577Z,3.77
2019-06-10T16:49:30.247Z,4.30
2019-06-10T16:52:02.896Z,4.17
2019-06-10T16:54:33.151Z,3.83
2019-06-10T16:57:03.842Z,3.93
2019-06-10T16:59:33.989Z,4.00
2019-06-10T17:02:04.152Z,3.60
2019-06-10T17:04:34.128Z,3.50
2019-06-10T17:07:04.294Z,3.30
2019-06-10T17:09:34.349Z,4.10
2019-06-10T17:12:04.509Z,4.00
2019-06-10T17:14:34.470Z,3.80
2019-06-10T17:17:04.555Z,3.60
2019-06-10T17:19:34.535Z,3.07
2019-06-10T17:22:04.701Z,3.20
2019-06-10T17:24:34.763Z,2.63
2019-06-10T17:27:04.862Z,2.73
2019-06-10T17:29:34.817Z,2.27
2019-06-10T17:32:04.879Z,2.93
2019-06-10T17:34:34.932Z,3.30
2019-06-10T17:37:04.971Z,3.10
2019-06-10T17:39:35.094Z,3.13
2019-06-10T17:42:05.476Z,3.10
2019-06-10T17:44:35.429Z,3.00
2019-06-10T17:47:05.518Z,2.93
2019-06-10T17:49:36.557Z,2.87
2019-06-10T17:52:07.080Z,2.70
2019-06-10T17:54:37.034Z,2.37
2019-06-10T17:57:06.986Z,2.77
2019-06-10T17:59:37.165Z,2.50
2019-06-10T18:02:07.458Z,2.90
2019-06-10T18:04:38.425Z,2.60
2019-06-10T18:07:08.419Z,3.10
2019-06-10T18:09:38.374Z,2.60
2019-06-10T18:12:08.425Z,2.70
2019-06-10T18:14:38.407Z,2.90
2019-06-10T18:17:08.381Z,2.80
2019-06-10T18:19:38.426Z,2.30
2019-06-10T18:22:08.385Z,2.70
2019-06-10T18:24:38.348Z,2.50
2019-06-10T18:27:08.501Z,1.80
2019-06-10T18:29:38.668Z,1.87
2019-06-10T18:32:08.888Z,1.53
2019-06-10T18:34:38.860Z,1.90
2019-06-10T18:37:08.986Z,1.67
2019-06-10T18:39:39.907Z,1.70
2019-06-10T18:42:12.519Z,1.90
2019-06-10T18:44:41.972Z,1.63
2019-06-10T18:47:13.452Z,1.30
2019-06-10T18:49:43.674Z,1.50
2019-06-10T18:52:14.842Z,1.40
2019-06-10T18:54:45.293Z,1.80
2019-06-10T18:57:15.924Z,1.50
2019-06-10T18:59:45.879Z,1.40
2019-06-10T19:02:15.933Z,1.60
2019-06-10T19:04:45.997Z,1.40
2019-06-10T19:07:17.759Z,1.30
2019-06-10T19:09:48.162Z,1.20
2019-06-10T19:12:18.337Z,1.50
2019-06-10T19:14:48.344Z,1.20
2019-06-10T19:17:18.287Z,1.37
2019-06-10T19:19:48.247Z,0.83
2019-06-10T19:22:18.311Z,1.03
2019-06-10T19:24:49.388Z,1.00
2019-06-10T19:27:19.552Z,1.20
2019-06-10T19:29:51.213Z,1.30
2019-06-10T19:32:21.200Z,1.40
2019-06-10T19:34:52.078Z,1.47
2019-06-10T19:37:23.372Z,1.57
2019-06-10T19:40:12.409Z,1.60
2019-06-10T19:42:44.475Z,1.60
2019-06-10T19:45:14.896Z,1.40
2019-06-10T19:47:45.921Z,1.20
2019-06-10T19:50:16.468Z,1.30
2019-06-10T19:52:46.864Z,1.40
2019-06-10T19:55:19.321Z,1.30
2019-06-10T19:57:59.469Z,1.27
2019-06-10T20:00:29.462Z,1.10
2019-06-10T20:02:59.525Z,1.33
2019-06-10T20:05:29.501Z,1.67
2019-06-10T20:07:59.598Z,1.53
2019-06-10T20:10:32.209Z,1.43
2019-06-10T20:13:01.498Z,1.43
2019-06-10T20:15:32.828Z,1.50
2019-06-10T20:18:03.202Z,1.60
2019-06-10T20:20:33.545Z,1.30
2019-06-10T20:23:03.985Z,1.50
2019-06-10T20:25:34.099Z,1.70
2019-06-10T20:28:04.194Z,1.43
2019-06-10T20:30:34.282Z,1.30
2019-06-10T20:33:04.502Z,1.50
2019-06-10T20:35:34.641Z,1.67
2019-06-10T20:38:05.253Z,1.53
2019-06-10T20:40:35.687Z,1.97
2019-06-10T20:43:06.052Z,1.80
2019-06-10T20:45:37.629Z,2.03
2019-06-10T20:48:07.864Z,1.40
2019-06-10T20:50:39.063Z,1.70
2019-06-10T20:53:18.282Z,1.60
2019-06-10T20:55:51.368Z,1.80
2019-06-10T20:58:22.900Z,1.50
2019-06-10T21:00:57.030Z,2.63
2019-06-10T21:03:25.119Z,1.60
2019-06-10T21:05:55.883Z,1.50
2019-06-10T21:08:27.412Z,1.30
2019-06-10T21:10:57.420Z,1.30
2019-06-10T21:13:27.695Z,1.10
2019-06-10T21:15:59.294Z,1.23
2019-06-10T21:18:29.627Z,1.67
2019-06-10T21:20:59.918Z,1.40
2019-06-10T21:23:30.167Z,1.40
2019-06-10T21:26:02.582Z,1.77
2019-06-10T21:28:32.765Z,1.57
2019-06-10T21:31:05.823Z,1.70
2019-06-10T21:33:35.819Z,2.10
2019-06-10T21:36:06.691Z,1.67
2019-06-10T21:38:36.734Z,1.90
2019-06-10T21:41:06.814Z,1.63
2019-06-10T21:43:36.884Z,1.40
2019-06-10T21:46:06.875Z,1.30
2019-06-10T21:48:36.896Z,1.30
2019-06-10T21:51:07.244Z,1.10
2019-06-10T21:53:37.551Z,1.60
2019-06-10T21:56:07.764Z,1.50
2019-06-10T21:58:37.792Z,1.23
2019-06-10T22:01:12.945Z,1.63
2019-06-10T22:03:39.749Z,1.90
2019-06-10T22:06:11.942Z,1.90
2019-06-10T22:08:42.523Z,1.83
2019-06-10T22:11:13.912Z,1.60
2019-06-10T22:13:44.110Z,1.90
2019-06-10T22:16:14.227Z,2.27
2019-06-10T22:18:44.554Z,1.97
2019-06-10T22:21:14.827Z,1.93
2019-06-10T22:23:45.046Z,1.90
2019-06-10T22:26:15.096Z,1.90
2019-06-10T22:28:45.420Z,2.23
2019-06-10T22:31:22.641Z,1.80
2019-06-10T22:33:47.521Z,1.57
2019-06-10T22:36:17.755Z,1.50
2019-06-10T22:38:47.905Z,1.40
2019-06-10T22:41:18.201Z,1.40
2019-06-10T22:43:49.329Z,1.80
2019-06-10T22:46:19.584Z,1.50
2019-06-10T22:48:50.942Z,1.50
2019-06-10T22:51:22.662Z,2.00
2019-06-10T22:53:56.124Z,1.90
2019-06-10T22:56:24.671Z,1.77
2019-06-10T22:58:55.951Z,1.80
2019-06-10T23:01:34.165Z,1.67
2019-06-10T23:03:58.179Z,1.67
2019-06-10T23:06:28.407Z,1.80
2019-06-10T23:08:59.438Z,1.37
2019-06-10T23:11:29.691Z,1.57
2019-06-10T23:13:59.725Z,1.50
2019-06-10T23:16:29.808Z,1.50
2019-06-10T23:18:59.969Z,1.67
2019-06-10T23:21:30.138Z,1.70
2019-06-10T23:24:02.948Z,1.50
2019-06-10T23:26:33.158Z,1.40
2019-06-10T23:29:03.582Z,1.57
2019-06-10T23:31:48.328Z,1.60
2019-06-10T23:34:05.477Z,1.40
2019-06-10T23:36:35.616Z,1.73
2019-06-10T23:39:06.641Z,1.60
2019-06-10T23:41:36.791Z,1.50
2019-06-10T23:44:07.016Z,1.90
2019-06-10T23:46:37.037Z,1.57
2019-06-10T23:49:07.297Z,1.60
2019-06-10T23:51:37.336Z,1.57
2019-06-10T23:54:07.593Z,1.57
2019-06-10T23:56:38.037Z,1.57
2019-06-10T23:59:08.273Z,1.67
